Time;durP1;ratioP1;P1;durP2;ratioP2;P2;SDS_P1;SDS_P2;PMS_P1;PMS_P2;Temp;Humidity;BMP_temperature;BMP_pressure;BME280_temperature;BME280_humidity;BME280_pressure;Samples;Min_cycle;Max_cycle;Signal;HPM_P1;HPM_P2
2022/11/05 00:09:31;;;;;;;;;;;10.80;66.20;;;6.14;99.98;95337.16;5012501;28;19916;-50
2022/11/05 00:17:40;;;;;;;;;;;10.80;66.20;;;6.20;98.78;95336.19;5015215;28;20382;-47
2022/11/05 00:20:10;;;;;;;;;;;10.80;66.20;;;6.18;98.57;95338.31;5022067;28;19924;-48
2022/11/05 00:25:32;;;;;;;;;;;10.80;66.20;;;6.17;98.55;95348.09;5017414;28;19959;-52
2022/11/05 00:28:02;;;;;;;;;;;10.80;66.10;;;6.19;98.13;95343.34;5031049;28;19913;-46
2022/11/05 00:30:29;;;;;;;;;;;10.80;66.10;;;6.21;97.94;95353.69;5012627;28;20311;-51
2022/11/05 00:33:04;;;;;;;;;;;10.80;66.10;;;6.18;98.11;95347.03;5013434;28;19916;-47
2022/11/05 00:35:30;;;;;;;;;;;10.80;66.10;;;6.17;97.96;95347.28;5030187;28;20375;-49
2022/11/05 00:37:55;;;;;;;;;;;10.80;66.10;;;6.19;98.11;95353.94;5014903;28;19947;-50
2022/11/05 00:40:21;;;;;;;;;;;10.80;66.10;;;6.16;98.33;95356.25;5014655;28;19913;-49
2022/11/05 00:45:34;;;;;;;;;;;10.80;66.00;;;6.16;97.49;95362.34;5027213;28;19916;-48
2022/11/05 00:50:56;;;;;;;;;;;10.80;66.00;;;6.15;97.68;95366.03;5012756;28;20387;-47
2022/11/05 00:53:22;;;;;;;;;;;10.80;66.10;;;6.21;97.91;95370.38;5028269;28;19913;-47
2022/11/05 00:55:50;;;;;;;;;;;10.80;66.10;;;6.21;97.75;95370.38;5032269;28;20268;-48
2022/11/05 00:58:21;;;;;;;;;;;10.80;66.10;;;6.20;98.00;95366.09;5030961;28;20287;-47
2022/11/05 01:00:53;;;;;;;;;;;10.80;66.10;;;6.20;97.63;95374.03;5014662;28;19908;-48
2022/11/05 01:03:39;;;;;;;;;;;10.90;66.10;;;6.21;97.57;95378.31;5018777;28;19947;-49
2022/11/05 01:06:11;;;;;;;;;;;10.80;66.10;;;6.21;97.33;95383.59;5026762;28;20303;-48
2022/11/05 01:08:44;;;;;;;;;;;10.90;66.10;;;6.24;97.01;95384.97;5011340;28;19909;-50
2022/11/05 01:11:34;;;;;;;;;;;10.80;66.10;;;6.24;96.68;95385.75;5011963;28;19909;-49
2022/11/05 01:14:16;;;;;;;;;;;10.90;66.10;;;6.25;96.17;95390.00;5011338;28;19916;-48
2022/11/05 01:16:48;;;;;;;;;;;10.80;66.00;;;6.26;96.08;95394.22;5001785;28;20047;-48
2022/11/05 01:19:14;;;;;;;;;;;10.90;66.00;;;6.29;96.16;95392.16;5024098;28;19917;-49
2022/11/05 01:21:43;;;;;;;;;;;10.90;66.00;;;6.33;96.29;95402.03;5012972;28;20429;-54
2022/11/05 01:24:17;;;;;;;;;;;10.90;66.00;;;6.34;96.54;95400.19;5031750;28;19956;-48
2022/11/05 01:26:43;;;;;;;;;;;10.90;66.70;;;6.31;96.44;95403.31;5010812;28;19935;-49
2022/11/05 01:29:10;;;;;;;;;;;10.90;65.90;;;6.26;96.16;95407.44;5018352;28;19908;-52
2022/11/05 01:31:50;;;;;;;;;;;10.90;65.90;;;6.32;95.90;95404.91;5030418;28;19909;-49
2022/11/05 01:34:16;;;;;;;;;;;10.90;65.80;;;6.30;95.96;95404.31;5029136;28;19940;-49
2022/11/05 01:36:53;;;;;;;;;;;11.00;65.90;;;6.31;95.64;95406.75;5031197;28;20007;-49
2022/11/05 01:39:19;;;;;;;;;;;10.90;65.80;;;6.31;95.61;95414.69;5030356;28;20399;-49
2022/11/05 01:41:54;;;;;;;;;;;11.00;65.90;;;6.29;95.69;95406.19;5012207;28;20011;-51
2022/11/05 01:44:54;;;;;;;;;;;10.90;65.80;;;6.34;95.41;95403.63;5013754;28;19913;-49
2022/11/05 01:48:12;;;;;;;;;;;10.90;65.70;;;6.35;95.32;95412.34;5020965;28;19999;-48
2022/11/05 01:50:52;;;;;;;;;;;11.00;65.80;;;6.37;95.04;95413.72;5030257;28;19940;-48
2022/11/05 01:53:31;;;;;;;;;;;10.90;65.80;;;6.37;94.57;95416.38;5011893;28;20011;-54
2022/11/05 01:56:24;;;;;;;;;;;11.00;65.80;;;6.37;95.22;95419.00;5010148;28;19909;-51
2022/11/05 01:59:08;;;;;;;;;;;11.00;65.80;;;6.41;95.12;95412.19;5002370;28;19966;-48
2022/11/05 02:01:34;;;;;;;;;;;11.00;65.70;;;6.41;94.87;95411.38;5024003;28;19915;-49
2022/11/05 02:04:19;;;;;;;;;;;11.00;65.70;;;6.42;94.55;95418.28;5006802;28;19909;-48
2022/11/05 02:07:04;;;;;;;;;;;11.00;65.60;;;6.43;94.30;95412.75;5009884;28;19952;-49
2022/11/05 02:09:48;;;;;;;;;;;11.10;66.40;;;6.42;94.18;95416.41;5010718;28;19991;-52
2022/11/05 02:12:27;;;;;;;;;;;11.00;65.60;;;6.40;94.16;95415.88;5030405;28;20279;-50
2022/11/05 02:14:54;;;;;;;;;;;11.10;65.50;;;6.44;94.25;95413.56;4994400;28;20375;-48
2022/11/05 02:17:47;;;;;;;;;;;11.10;65.50;;;6.44;93.90;95408.25;5008629;28;19909;-52
2022/11/05 02:20:44;;;;;;;;;;;11.10;65.50;;;6.48;94.31;95409.38;5030683;28;19916;-49
2022/11/05 02:23:58;;;;;;;;;;;11.10;65.50;;;6.47;93.98;95415.72;5014797;28;19908;-47
2022/11/05 02:27:11;;;;;;;;;;;11.10;65.50;;;6.46;94.05;95414.91;5009361;28;20065;-47
2022/11/05 02:30:19;;;;;;;;;;;11.10;65.50;;;6.48;94.33;95420.75;5006399;28;19909;-47
2022/11/05 02:33:18;;;;;;;;;;;11.10;65.50;;;6.54;94.69;95420.84;5022033;28;19912;-52
2022/11/05 02:36:23;;;;;;;;;;;11.10;65.50;;;6.52;94.40;95421.09;5012698;28;19909;-47
2022/11/05 02:39:14;;;;;;;;;;;11.20;65.50;;;6.49;93.84;95427.66;5017404;28;19916;-50
2022/11/05 02:42:06;;;;;;;;;;;11.20;65.50;;;6.51;93.79;95422.13;5020818;28;19915;-48
2022/11/05 02:44:55;;;;;;;;;;;11.20;65.40;;;6.51;93.60;95426.59;5050623;28;19973;-46
2022/11/05 02:47:57;;;;;;;;;;;11.20;65.40;;;6.52;93.57;95418.44;5006126;28;19908;-49
2022/11/05 02:51:11;;;;;;;;;;;11.20;65.30;;;6.51;93.50;95419.47;5044144;28;19916;-49
2022/11/05 02:54:05;;;;;;;;;;;11.20;65.30;;;6.52;93.72;95429.03;5030273;28;20007;-49
2022/11/05 02:56:40;;;;;;;;;;;11.20;65.30;;;6.49;93.40;95424.22;5012647;28;19916;-47
2022/11/05 02:59:18;;;;;;;;;;;11.20;65.30;;;6.52;93.31;95428.19;5022718;28;19913;-48
2022/11/05 03:01:50;;;;;;;;;;;11.20;65.30;;;6.45;93.12;95425.72;5032517;28;19916;-50
2022/11/05 03:04:20;;;;;;;;;;;11.20;65.20;;;6.41;92.39;95430.69;5020543;28;19913;-55
2022/11/05 03:07:50;;;;;;;;;;;11.20;65.20;;;6.40;92.89;95433.59;4996638;28;19928;-51
2022/11/05 03:11:00;;;;;;;;;;;11.10;65.00;;;6.44;92.96;95438.16;5018068;28;19909;-50
2022/11/05 03:14:44;;;;;;;;;;;11.10;65.10;;;6.41;92.63;95437.84;4957980;28;19910;-49
2022/11/05 03:18:02;;;;;;;;;;;11.10;65.10;;;6.38;92.77;95436.47;4953938;28;19913;-53
2022/11/05 03:20:38;;;;;;;;;;;11.10;65.20;;;6.39;92.84;95440.75;5029889;28;19924;-50
2022/11/05 03:23:29;;;;;;;;;;;11.10;65.20;;;6.42;92.72;95448.16;5018397;28;19909;-48
2022/11/05 03:26:17;;;;;;;;;;;11.10;65.30;;;6.41;93.28;95443.94;5036165;28;19991;-47
2022/11/05 03:28:55;;;;;;;;;;;11.10;65.20;;;6.40;93.31;95449.47;5013796;28;19916;-47
2022/11/05 03:31:24;;;;;;;;;;;11.10;65.20;;;6.37;93.54;95450.75;5012905;28;19944;-47
2022/11/05 03:33:57;;;;;;;;;;;11.10;65.20;;;6.35;93.53;95442.25;5022956;28;19936;-46
2022/11/05 03:36:49;;;;;;;;;;;11.10;65.20;;;6.40;93.74;95444.19;5012118;28;19958;-51
2022/11/05 03:39:30;;;;;;;;;;;11.10;65.20;;;6.38;93.66;95452.34;5001453;28;20015;-49
2022/11/05 03:42:07;;;;;;;;;;;11.10;65.20;;;6.45;93.70;95462.78;5000495;28;19913;-51
2022/11/05 03:44:41;;;;;;;;;;;11.10;65.20;;;6.43;93.64;95452.44;5033455;28;19940;-51
2022/11/05 03:47:29;;;;;;;;;;;11.10;65.20;;;6.45;94.01;95471.50;5011328;28;20318;-47
2022/11/05 03:50:07;;;;;;;;;;;11.10;65.20;;;6.45;93.95;95473.34;5029951;28;20329;-48
2022/11/05 03:52:51;;;;;;;;;;;11.10;65.20;;;6.41;93.98;95480.97;5015868;28;19908;-51
2022/11/05 03:55:21;;;;;;;;;;;11.10;65.20;;;6.38;94.17;95485.94;5032082;28;20308;-49
2022/11/05 03:57:54;;;;;;;;;;;11.10;65.10;;;6.39;94.45;95482.25;5015711;28;20007;-46
2022/11/05 04:00:22;;;;;;;;;;;11.10;65.10;;;6.43;94.99;95488.69;5019103;28;19923;-47
2022/11/05 04:02:54;;;;;;;;;;;11.10;65.20;;;6.45;95.07;95487.38;5018963;28;20286;-46
2022/11/05 04:05:28;;;;;;;;;;;11.10;65.20;;;6.45;95.23;95497.16;5030035;28;19966;-46
2022/11/05 04:13:28;;;;;;;;;;;11.10;65.20;;;6.39;96.02;95506.06;5033365;28;19915;-54
2022/11/05 04:18:46;;;;;;;;;;;11.10;65.20;;;6.37;95.97;95497.59;5032725;28;19942;-48
2022/11/05 04:24:07;;;;;;;;;;;11.00;65.20;;;6.37;96.13;95497.59;5028541;28;20313;-51
2022/11/05 04:26:39;;;;;;;;;;;11.00;65.30;;;6.35;96.72;95510.25;5031330;28;20016;-52
2022/11/05 04:32:03;;;;;;;;;;;11.00;65.30;;;6.38;97.55;95515.06;5052798;28;19915;-47
2022/11/05 04:34:28;;;;;;;;;;;10.90;65.30;;;6.38;98.09;95512.41;5024438;28;20000;-51
2022/11/05 04:36:57;;;;;;;;;;;10.90;65.40;;;6.35;98.18;95512.88;5032394;28;20004;-48
2022/11/05 04:39:23;;;;;;;;;;;10.90;65.40;;;6.32;98.58;95513.38;5014670;28;20449;-50
2022/11/05 04:41:58;;;;;;;;;;;10.90;65.50;;;6.34;98.71;95522.66;5046559;28;19955;-50
2022/11/05 04:44:23;;;;;;;;;;;10.90;65.50;;;6.29;99.09;95522.56;5034550;28;19918;-48
2022/11/05 04:46:55;;;;;;;;;;;10.90;65.60;;;6.28;99.28;95525.47;5037921;28;20371;-46
2022/11/05 04:49:33;;;;;;;;;;;10.90;65.60;;;6.27;99.46;95527.31;5032549;28;19974;-54
2022/11/05 04:52:01;;;;;;;;;;;10.80;65.60;;;6.22;99.62;95528.00;5010675;28;19947;-54
2022/11/05 04:54:27;;;;;;;;;;;10.80;65.70;;;6.20;100.00;95535.38;5020631;28;20426;-47
2022/11/05 04:56:59;;;;;;;;;;;10.80;65.70;;;6.22;100.00;95535.97;5052090;28;19995;-47
2022/11/05 04:59:27;;;;;;;;;;;10.80;65.70;;;6.23;100.00;95531.47;5034343;28;20379;-47
2022/11/05 05:01:53;;;;;;;;;;;10.80;65.80;;;6.21;100.00;95534.34;5032638;28;20332;-46
2022/11/05 05:04:21;;;;;;;;;;;10.80;65.90;;;6.24;100.00;95536.53;5013044;28;19913;-47
2022/11/05 05:06:59;;;;;;;;;;;10.80;66.70;;;6.25;100.00;95542.63;5021851;28;19915;-49
2022/11/05 05:09:24;;;;;;;;;;;10.80;66.00;;;6.23;100.00;95537.53;5049483;28;20432;-54
2022/11/05 05:11:53;;;;;;;;;;;10.80;66.10;;;6.20;100.00;95534.59;5011042;28;19909;-48
2022/11/05 05:14:28;;;;;;;;;;;10.70;66.00;;;6.16;100.00;95536.91;5027828;28;20371;-47
2022/11/05 05:16:54;;;;;;;;;;;10.70;66.10;;;6.17;100.00;95537.69;5000005;28;20379;-45
2022/11/05 05:19:19;;;;;;;;;;;10.70;66.10;;;6.17;100.00;95546.47;5026239;28;19920;-51
2022/11/05 05:21:51;;;;;;;;;;;10.70;66.10;;;6.18;100.00;95547.25;5025798;28;19927;-45
2022/11/05 05:24:26;;;;;;;;;;;10.70;66.20;;;6.14;100.00;95554.03;5029913;28;19909;-46
2022/11/05 05:26:58;;;;;;;;;;;10.70;66.20;;;6.11;100.00;95547.41;5031334;28;19913;-47
2022/11/05 05:29:26;;;;;;;;;;;10.70;66.20;;;6.11;100.00;95551.88;5018972;28;19912;-48
2022/11/05 05:31:52;;;;;;;;;;;10.70;66.30;;;6.09;100.00;95554.75;5031275;28;19943;-50
2022/11/05 05:34:21;;;;;;;;;;;10.60;66.30;;;6.05;100.00;95555.47;5021024;28;20431;-48
2022/11/05 05:36:47;;;;;;;;;;;10.60;66.40;;;5.99;100.00;95550.09;5024530;28;19944;-48
2022/11/05 05:39:16;;;;;;;;;;;10.60;66.40;;;6.04;100.00;95557.31;5031144;28;19948;-48
2022/11/05 05:41:41;;;;;;;;;;;10.60;66.50;;;6.05;100.00;95556.28;5024705;28;19932;-47
2022/11/05 05:44:13;;;;;;;;;;;10.60;66.50;;;6.05;100.00;95563.38;5031430;28;20352;-46
2022/11/05 05:46:39;;;;;;;;;;;10.60;66.60;;;5.98;100.00;95563.53;5021727;28;19909;-47
2022/11/05 05:49:10;;;;;;;;;;;10.60;66.60;;;5.90;100.00;95561.25;5003075;28;19916;-48
2022/11/05 05:51:41;;;;;;;;;;;10.50;67.30;;;5.94;100.00;95557.13;4995974;28;19939;-45
2022/11/05 05:54:13;;;;;;;;;;;10.50;66.70;;;5.95;100.00;95569.28;5020799;28;19912;-46
2022/11/05 05:56:43;;;;;;;;;;;10.50;66.70;;;5.90;100.00;95566.53;5029437;28;19909;-45
2022/11/05 05:59:14;;;;;;;;;;;10.50;66.90;;;5.87;100.00;95573.09;5029867;28;20441;-47
2022/11/05 06:01:59;;;;;;;;;;;10.50;66.90;;;5.83;100.00;95571.97;5031083;28;20329;-47
2022/11/05 06:04:30;;;;;;;;;;;10.50;67.00;;;5.86;100.00;95583.88;5022304;28;19916;-45
2022/11/05 06:06:56;;;;;;;;;;;10.40;67.00;;;5.87;100.00;95578.38;5030566;28;19995;-44
2022/11/05 06:09:22;;;;;;;;;;;10.40;67.00;;;5.88;100.00;95581.81;5030709;28;20003;-54
2022/11/05 06:11:50;;;;;;;;;;;10.40;67.10;;;5.91;100.00;95589.28;5029906;28;19913;-47
2022/11/05 06:14:16;;;;;;;;;;;10.40;67.20;;;5.89;100.00;95591.34;5030844;28;20003;-45
2022/11/05 06:16:41;;;;;;;;;;;10.40;67.20;;;5.90;100.00;95590.34;5028594;28;20479;-46
2022/11/05 06:19:08;;;;;;;;;;;10.40;67.20;;;5.89;100.00;95596.63;5025947;28;20015;-45
2022/11/05 06:21:34;;;;;;;;;;;10.40;67.20;;;5.85;100.00;95598.94;5029763;28;19909;-45
2022/11/05 06:24:01;;;;;;;;;;;10.40;67.30;;;5.88;100.00;95600.34;5025254;28;19923;-48
2022/11/05 06:26:30;;;;;;;;;;;10.50;67.30;;;5.90;100.00;95606.19;5029221;28;20333;-50
2022/11/05 06:28:56;;;;;;;;;;;10.50;67.30;;;5.92;100.00;95604.09;5029950;28;20260;-52
2022/11/05 06:31:28;;;;;;;;;;;10.40;67.30;;;5.86;100.00;95616.44;5005960;28;19920;-49
2022/11/05 06:33:54;;;;;;;;;;;10.50;67.40;;;5.83;100.00;95613.44;5028133;28;19935;-49
2022/11/05 06:36:20;;;;;;;;;;;10.40;67.30;;;5.88;100.00;95614.34;5007826;28;20310;-47
2022/11/05 06:38:46;;;;;;;;;;;10.50;67.40;;;5.89;100.00;95620.44;5011565;28;19921;-51
2022/11/05 06:41:11;;;;;;;;;;;10.50;67.40;;;5.90;100.00;95619.41;5018839;28;19917;-50
2022/11/05 06:43:46;;;;;;;;;;;10.50;67.50;;;5.85;100.00;95621.94;5029538;28;19908;-48
2022/11/05 06:46:12;;;;;;;;;;;10.50;67.50;;;5.86;100.00;95623.53;5035656;28;20055;-50
2022/11/05 06:48:39;;;;;;;;;;;10.50;67.50;;;5.83;100.00;95629.28;5023643;28;20012;-48
2022/11/05 06:51:07;;;;;;;;;;;10.50;67.50;;;5.81;100.00;95629.53;5024534;28;20011;-51
2022/11/05 06:53:33;;;;;;;;;;;10.50;67.50;;;5.86;100.00;95631.47;5015902;28;19924;-46
2022/11/05 06:56:06;;;;;;;;;;;10.50;67.60;;;5.89;100.00;95634.47;5026173;28;19957;-48
2022/11/05 06:58:35;;;;;;;;;;;10.50;67.60;;;5.94;100.00;95645.19;5037106;28;19913;-46
2022/11/05 07:01:07;;;;;;;;;;;10.50;67.60;;;5.97;100.00;95643.91;5022642;28;19912;-46
2022/11/05 07:03:34;;;;;;;;;;;10.60;67.70;;;5.89;100.00;95647.69;5015139;28;20360;-48
2022/11/05 07:06:05;;;;;;;;;;;10.60;67.70;;;5.87;100.00;95649.75;5047746;28;20359;-50
2022/11/05 07:08:36;;;;;;;;;;;10.60;67.70;;;5.95;100.00;95653.91;5036343;28;20354;-45
2022/11/05 07:11:05;;;;;;;;;;;10.60;67.70;;;5.97;100.00;95659.78;5022618;28;19924;-45
2022/11/05 07:13:36;;;;;;;;;;;10.60;67.70;;;5.98;100.00;95664.00;5009432;28;20379;-48
2022/11/05 07:16:01;;;;;;;;;;;10.60;67.70;;;5.98;100.00;95672.75;4986466;28;20677;-46
2022/11/05 07:18:27;;;;;;;;;;;10.60;67.80;;;6.05;100.00;95677.94;4931033;28;19912;-48
2022/11/05 07:20:53;;;;;;;;;;;10.60;67.80;;;6.04;100.00;95681.59;5010864;28;19921;-47
2022/11/05 07:23:22;;;;;;;;;;;10.70;67.80;;;6.05;100.00;95685.88;5027579;28;19920;-47
2022/11/05 07:25:53;;;;;;;;;;;10.70;67.80;;;6.08;100.00;95690.69;5033000;28;19913;-46
2022/11/05 07:28:19;;;;;;;;;;;10.80;67.80;;;6.07;100.00;95688.25;5017640;28;19913;-47
2022/11/05 07:30:47;;;;;;;;;;;10.80;67.70;;;6.14;100.00;95696.88;5019817;28;20027;-49
2022/11/05 07:33:15;;;;;;;;;;;10.90;67.70;;;6.16;100.00;95698.25;5035649;28;19916;-46
2022/11/05 07:35:56;;;;;;;;;;;10.90;67.60;;;6.20;100.00;95701.22;5020068;28;20363;-45
2022/11/05 07:38:27;;;;;;;;;;;11.00;67.60;;;6.20;100.00;95699.38;5034837;28;19973;-47
2022/11/05 07:41:01;;;;;;;;;;;11.00;67.50;;;6.24;100.00;95702.38;5040067;28;19962;-46
2022/11/05 07:43:30;;;;;;;;;;;11.10;67.60;;;6.26;100.00;95700.28;5015311;28;19909;-45
2022/11/05 07:45:56;;;;;;;;;;;11.10;67.60;;;6.25;100.00;95710.06;5014434;28;20357;-49
2022/11/05 07:48:22;;;;;;;;;;;11.10;67.60;;;6.22;100.00;95715.81;5049310;28;20019;-49
2022/11/05 07:50:52;;;;;;;;;;;11.10;67.60;;;6.28;100.00;95715.94;5052632;28;20420;-46
2022/11/05 07:53:19;;;;;;;;;;;11.10;67.60;;;6.31;100.00;95718.91;5019687;28;20023;-46
2022/11/05 07:55:45;;;;;;;;;;;11.10;67.60;;;6.35;100.00;95720.06;5020983;28;20516;-48
2022/11/05 07:58:12;;;;;;;;;;;11.10;67.60;;;6.38;100.00;95719.59;4995186;28;19956;-48
2022/11/05 08:00:37;;;;;;;;;;;11.20;67.60;;;6.37;100.00;95727.78;5013032;28;20415;-46
2022/11/05 08:03:07;;;;;;;;;;;11.30;67.60;;;6.41;100.00;95720.97;5030647;28;20391;-51
2022/11/05 08:05:38;;;;;;;;;;;11.30;67.50;;;6.45;100.00;95735.31;5013587;28;20058;-50
2022/11/05 08:08:09;;;;;;;;;;;11.30;67.50;;;6.52;100.00;95735.19;5030939;28;20416;-51
2022/11/05 08:10:37;;;;;;;;;;;11.40;67.50;;;6.59;100.00;95741.97;5027326;28;19909;-46
2022/11/05 08:13:05;;;;;;;;;;;11.50;67.40;;;6.56;100.00;95739.78;5019259;28;19924;-45
2022/11/05 08:15:32;;;;;;;;;;;11.50;67.30;;;6.61;100.00;95742.56;5014257;28;20379;-47
2022/11/05 08:18:09;;;;;;;;;;;11.50;67.30;;;6.60;100.00;95740.13;5037438;28;20382;-49
2022/11/05 08:20:35;;;;;;;;;;;11.60;67.30;;;6.69;100.00;95744.81;5018838;28;20294;-46
2022/11/05 08:23:01;;;;;;;;;;;11.60;67.40;;;6.71;100.00;95741.94;5017950;28;20003;-46
2022/11/05 08:25:27;;;;;;;;;;;11.60;67.30;;;6.67;100.00;95744.22;5014810;28;20354;-45
2022/11/05 08:28:22;;;;;;;;;;;11.60;67.30;;;6.67;100.00;95738.94;5014606;28;19924;-47
2022/11/05 08:30:50;;;;;;;;;;;11.60;67.20;;;6.70;100.00;95742.97;5015951;28;20389;-47
2022/11/05 08:33:16;;;;;;;;;;;11.70;68.00;;;6.82;100.00;95745.56;5031131;28;20367;-50
2022/11/05 08:35:43;;;;;;;;;;;11.80;67.20;;;6.87;100.00;95753.63;5026029;28;19912;-46
2022/11/05 08:38:12;;;;;;;;;;;11.80;67.20;;;6.90;100.00;95751.28;5017771;28;19916;-47
2022/11/05 08:40:52;;;;;;;;;;;11.80;67.20;;;6.88;100.00;95755.22;5029472;28;20338;-46
2022/11/05 08:43:18;;;;;;;;;;;11.90;67.20;;;6.91;100.00;95749.44;5031198;28;19913;-48
2022/11/05 08:45:43;;;;;;;;;;;11.90;67.20;;;6.92;100.00;95762.44;5013857;28;19917;-52
2022/11/05 08:48:14;;;;;;;;;;;11.90;67.10;;;6.97;100.00;95774.97;5017384;28;19908;-48
2022/11/05 08:50:40;;;;;;;;;;;11.90;67.20;;;6.90;100.00;95767.19;5030976;28;19952;-46
2022/11/05 08:53:07;;;;;;;;;;;11.90;67.10;;;6.99;100.00;95774.72;5015389;28;19909;-46
2022/11/05 08:55:37;;;;;;;;;;;11.90;67.10;;;7.06;100.00;95775.41;5016506;28;20333;-52
2022/11/05 08:58:15;;;;;;;;;;;12.00;67.20;;;7.09;100.00;95774.94;5028317;28;20413;-54
2022/11/05 09:00:44;;;;;;;;;;;12.00;67.20;;;7.01;100.00;95780.59;5015406;28;19921;-46
2022/11/05 09:03:11;;;;;;;;;;;12.10;67.10;;;7.08;100.00;95782.09;5014999;28;19909;-46
2022/11/05 09:05:39;;;;;;;;;;;12.10;67.00;;;7.13;100.00;95792.75;5014774;28;20446;-48
2022/11/05 09:08:06;;;;;;;;;;;12.20;67.00;;;7.15;100.00;95792.53;5013119;28;19909;-48
2022/11/05 09:10:33;;;;;;;;;;;12.20;66.90;;;7.22;100.00;95792.38;5013795;28;19923;-46
2022/11/05 09:12:58;;;;;;;;;;;12.30;66.90;;;7.31;100.00;95789.09;5013055;28;19912;-53
2022/11/05 09:15:24;;;;;;;;;;;12.40;66.80;;;7.38;100.00;95789.75;5028167;28;19963;-47
2022/11/05 09:17:50;;;;;;;;;;;12.50;66.80;;;7.33;100.00;95792.34;5019926;28;20321;-53
2022/11/05 09:20:18;;;;;;;;;;;12.50;66.60;;;7.37;100.00;95788.16;4996030;28;20058;-52
2022/11/05 09:22:45;;;;;;;;;;;12.60;66.50;;;7.39;100.00;95794.00;5026944;28;20007;-50
2022/11/05 09:25:11;;;;;;;;;;;12.60;66.40;;;7.48;100.00;95796.28;5018882;28;19916;-55
2022/11/05 09:27:37;;;;;;;;;;;12.70;66.50;;;7.57;100.00;95798.28;5004374;28;19920;-55
2022/11/05 09:30:04;;;;;;;;;;;12.70;66.40;;;7.50;99.02;95789.69;5011366;28;19908;-51
2022/11/05 09:32:31;;;;;;;;;;;12.80;66.30;;;7.57;99.45;95797.50;5000632;28;19908;-50
2022/11/05 09:35:00;;;;;;;;;;;12.80;66.20;;;7.57;99.49;95802.78;5013345;28;19924;-55
2022/11/05 09:37:27;;;;;;;;;;;12.80;66.20;;;7.56;99.54;95803.84;5030138;28;19920;-51
2022/11/05 09:39:54;;;;;;;;;;;12.80;66.20;;;7.52;99.13;95805.34;5015275;28;19932;-56
2022/11/05 09:42:31;;;;;;;;;;;12.90;66.10;;;7.53;99.58;95806.97;5020131;28;19948;-52
2022/11/05 09:45:14;;;;;;;;;;;12.90;65.90;;;7.58;100.00;95810.53;5013530;28;20004;-54
2022/11/05 09:47:51;;;;;;;;;;;13.00;65.90;;;7.61;98.68;95810.00;5013507;28;20335;-57
2022/11/05 09:50:32;;;;;;;;;;;13.10;65.90;;;7.71;99.84;95817.34;5015337;28;19915;-57
2022/11/05 09:52:58;;;;;;;;;;;13.10;65.80;;;7.85;99.41;95815.19;5011907;28;19940;-55
2022/11/05 09:55:37;;;;;;;;;;;13.20;65.80;;;7.93;99.52;95821.91;5027431;28;19913;-57
2022/11/05 09:58:24;;;;;;;;;;;13.30;65.90;;;7.87;96.56;95819.22;5010225;28;19912;-57
2022/11/05 10:00:51;;;;;;;;;;;13.30;65.80;;;7.87;97.86;95824.50;5010422;28;19912;-50
2022/11/05 10:03:30;;;;;;;;;;;13.30;65.70;;;7.91;98.59;95830.13;5012659;28;20367;-54
2022/11/05 10:06:08;;;;;;;;;;;13.30;65.80;;;7.75;97.40;95834.38;5028433;28;20015;-55
2022/11/05 10:08:45;;;;;;;;;;;13.20;65.60;;;7.68;97.24;95831.09;5016924;28;19909;-57
2022/11/05 10:11:46;;;;;;;;;;;13.20;65.60;;;7.78;97.97;95838.41;5010535;28;20150;-54
2022/11/05 10:14:47;;;;;;;;;;;13.20;65.60;;;7.84;97.45;95834.81;5021092;28;20432;-57
2022/11/05 10:17:24;;;;;;;;;;;13.20;65.60;;;7.83;97.64;95834.00;5011937;28;19909;-52
2022/11/05 10:20:25;;;;;;;;;;;13.20;65.50;;;7.93;98.01;95843.97;5029367;28;19921;-56
2022/11/05 10:22:59;;;;;;;;;;;13.30;65.50;;;8.03;97.48;95851.28;5014816;28;20371;-53
2022/11/05 10:25:34;;;;;;;;;;;13.40;65.50;;;8.10;97.89;95850.06;5011657;28;19921;-53
2022/11/05 10:28:03;;;;;;;;;;;13.50;65.50;;;8.07;97.22;95850.53;5012402;28;19955;-54
2022/11/05 10:30:32;;;;;;;;;;;13.50;65.40;;;8.10;97.39;95851.91;5013161;28;20457;-56
2022/11/05 10:33:05;;;;;;;;;;;13.50;65.30;;;8.11;97.09;95853.50;5029827;28;19970;-58
2022/11/05 10:35:46;;;;;;;;;;;13.60;65.20;;;7.99;94.76;95853.63;4991534;28;19982;-55
2022/11/05 10:38:14;;;;;;;;;;;13.70;65.20;;;8.19;96.12;95857.63;5012594;28;19924;-58
2022/11/05 10:41:06;;;;;;;;;;;13.70;65.00;;;8.28;95.66;95862.28;5024608;28;19970;-54
2022/11/05 10:43:53;;;;;;;;;;;13.80;65.00;;;8.47;95.42;95856.75;4998927;28;20347;-56
2022/11/05 10:46:35;;;;;;;;;;;13.90;65.80;;;8.46;94.06;95855.13;4998074;28;19908;-58
2022/11/05 10:49:10;;;;;;;;;;;13.90;65.00;;;8.51;93.23;95857.84;5014590;28;20139;-55
2022/11/05 10:51:42;;;;;;;;;;;14.00;65.00;;;8.63;93.39;95850.59;5027828;28;19913;-57
2022/11/05 10:54:19;;;;;;;;;;;14.10;64.90;;;8.71;92.55;95854.66;5018220;28;19908;-55
2022/11/05 10:56:45;;;;;;;;;;;14.30;64.70;;;8.76;93.38;95849.41;5013041;28;19963;-58
2022/11/05 10:59:27;;;;;;;;;;;14.40;64.50;;;8.93;92.97;95841.38;4998126;28;20148;-56
2022/11/05 11:02:27;;;;;;;;;;;14.60;64.30;;;9.07;91.41;95845.28;5014846;28;19913;-55
2022/11/05 11:04:56;;;;;;;;;;;14.70;64.20;;;9.18;90.04;95848.84;5014493;28;19924;-56
2022/11/05 11:07:25;;;;;;;;;;;15.00;64.00;;;9.48;89.15;95853.69;5013879;28;19909;-58
2022/11/05 11:09:52;;;;;;;;;;;15.60;63.80;;;9.77;87.55;95850.78;5010167;28;19924;-58
2022/11/05 11:12:28;;;;;;;;;;;15.90;63.50;;;9.84;86.46;95849.53;5001905;28;19923;-56
2022/11/05 11:15:21;;;;;;;;;;;16.10;63.80;;;9.79;84.56;95862.78;4990972;28;19981;-56
2022/11/05 11:17:47;;;;;;;;;;;16.10;62.70;;;9.89;84.14;95852.22;5011349;28;20280;-54
2022/11/05 11:20:29;;;;;;;;;;;16.10;62.50;;;9.92;84.40;95856.22;5017275;28;19917;-55
2022/11/05 11:23:19;;;;;;;;;;;16.10;62.30;;;9.96;84.79;95849.34;5021070;28;19948;-58
2022/11/05 11:26:00;;;;;;;;;;;16.10;62.10;;;10.03;83.26;95841.97;5014149;28;19917;-56
2022/11/05 11:28:38;;;;;;;;;;;16.00;62.00;;;10.03;82.02;95849.94;5014958;28;20282;-57
2022/11/05 11:31:16;;;;;;;;;;;16.00;62.00;;;10.04;83.00;95845.44;5001111;28;19916;-56
2022/11/05 11:33:47;;;;;;;;;;;16.00;61.80;;;10.05;81.45;95855.00;5011856;28;20008;-56
2022/11/05 11:36:23;;;;;;;;;;;15.90;61.80;;;10.12;82.67;95848.44;5014240;28;20015;-56
2022/11/05 11:39:00;;;;;;;;;;;15.80;61.90;;;10.10;81.40;95855.84;5032356;28;19912;-53
2022/11/05 11:41:37;;;;;;;;;;;15.70;61.80;;;10.07;81.85;95853.69;5007391;28;19909;-56
2022/11/05 11:44:19;;;;;;;;;;;15.60;61.90;;;10.07;81.25;95850.25;5019954;28;19947;-57
2022/11/05 11:46:51;;;;;;;;;;;15.50;62.00;;;10.06;81.11;95848.63;5016029;28;19956;-57
2022/11/05 11:49:53;;;;;;;;;;;15.30;62.00;;;10.04;82.48;95848.09;5037374;28;20030;-57
2022/11/05 11:52:34;;;;;;;;;;;15.20;62.20;;;9.99;82.85;95850.69;5023865;28;19912;-57
2022/11/05 11:55:20;;;;;;;;;;;15.10;62.40;;;9.81;81.81;95858.03;4998898;28;19909;-56
2022/11/05 11:58:06;;;;;;;;;;;15.00;62.40;;;9.60;83.36;95851.69;5019575;28;19920;-58
2022/11/05 12:00:41;;;;;;;;;;;14.80;62.30;;;9.57;83.53;95856.72;5017623;28;19928;-58
2022/11/05 12:03:16;;;;;;;;;;;14.70;62.40;;;9.30;83.55;95849.50;5004197;28;20015;-57
2022/11/05 12:05:53;;;;;;;;;;;14.60;62.40;;;9.23;86.33;95851.56;5030015;28;19912;-56
2022/11/05 12:09:04;;;;;;;;;;;14.50;62.30;;;9.13;88.42;95854.91;5032535;28;19992;-54
2022/11/05 12:11:45;;;;;;;;;;;14.50;62.30;;;9.15;89.92;95859.97;5004319;28;19916;-56
2022/11/05 12:15:00;;;;;;;;;;;14.40;62.30;;;9.06;88.65;95856.16;5014423;28;19908;-54
2022/11/05 12:17:58;;;;;;;;;;;14.40;62.30;;;9.10;91.61;95855.41;4997517;28;19908;-52
2022/11/05 12:21:14;;;;;;;;;;;14.30;62.30;;;9.06;90.95;95864.13;5013736;28;19943;-52
2022/11/05 12:24:19;;;;;;;;;;;14.20;62.60;;;8.99;91.29;95866.97;5030741;28;19909;-50
2022/11/05 12:27:31;;;;;;;;;;;14.10;62.90;;;8.83;92.20;95865.16;5028733;28;19919;-53
2022/11/05 12:30:19;;;;;;;;;;;13.90;63.10;;;8.67;91.76;95867.63;5031203;28;19954;-52
2022/11/05 12:33:10;;;;;;;;;;;13.80;63.20;;;8.61;91.60;95857.97;5005153;28;19913;-56
2022/11/05 12:36:29;;;;;;;;;;;13.70;63.20;;;8.53;90.06;95855.75;5027469;28;20365;-52
2022/11/05 12:39:36;;;;;;;;;;;13.60;63.20;;;8.52;90.72;95854.13;4940357;28;20058;-50